Etusivu
METAR-TAF:

METAR-TAF

Lentoasemat :

Clovis, New Mexico, Yhdysvallat

Leveyspiiri: 34-26N, Pituuspiiri: 103-05W, korkeus merenpinnasta: 1284 m

Tämänhetkinen sää

Tämä raportti tehtiin 5 minuuttia sitten, kello 11.56 UTC
Tuuli 7 kn lännestä
Lämpötila 17°C
Kosteus 68%
Ilmanpaine 1023 hPa
Näkyvyys: 16.1 km
selkeää

METAR: KCVN 121156Z AUTO 28007KT 10SM CLR 17/11 A3021 RMK AO2 SLP183 T01720111 10211 20172 53005 $

Aika: 06:01 (12:01 UTC)


TAF: puuttuu

Säähavainnot ja -ennusteet yli 4000 lentoasemalta (METAR- ja TAF-raportit).

Käytössä olevat sääasemat on merkitty karttaan keltaisilla ja punaisilla pisteillä.

Aseta hiiri pisteen päälle nähdäksesi sääaseman nimen.

Klikkaa sitten nähdäksesi säähavainnot ja -ennusteet.

Kartan vaihtaminen: klikkaa mustalla rastilla varustettuja vihreitä pisteitä, niin voit zoomata sisään; viivalla varustettua vihreää pistettä, niin voit zoomata ulos tai vihreitä nuolia, niin pääset viereisille kartoille.


METAR-TAF: